Time;durP1;ratioP1;P1;durP2;ratioP2;P2;SDS_P1;SDS_P2;PMS_P1;PMS_P2;Temp;Humidity;BMP_temperature;BMP_pressure;BME280_temperature;BME280_humidity;BME280_pressure;Samples;Min_cycle;Max_cycle;Signal;HPM_P1;HPM_P2
2022/10/20 00:02:02;;;;;;;17.27;8.40;;;;;;;;;;4947434;28;20491;-70
2022/10/20 00:04:28;;;;;;;15.45;7.50;;;;;;;;;;4949886;28;20089;-70
2022/10/20 00:06:54;;;;;;;12.05;7.25;;;;;;;;;;4950505;28;20039;-70
2022/10/20 00:09:20;;;;;;;13.55;7.57;;;;;;;;;;4950184;28;20027;-66
2022/10/20 00:11:46;;;;;;;13.20;7.03;;;;;;;;;;4952019;28;20391;-70
2022/10/20 00:14:12;;;;;;;12.20;7.10;;;;;;;;;;4944689;28;20035;-67
2022/10/20 00:16:38;;;;;;;10.73;7.30;;;;;;;;;;4950571;28;20383;-68
2022/10/20 00:19:04;;;;;;;11.25;6.93;;;;;;;;;;4947480;28;20027;-67
2022/10/20 00:21:31;;;;;;;13.27;7.25;;;;;;;;;;4950196;28;20042;-66
2022/10/20 00:24:02;;;;;;;11.27;6.75;;;;;;;;;;4949368;28;20031;-69
2022/10/20 00:26:29;;;;;;;18.88;7.10;;;;;;;;;;4942637;28;20028;-65
2022/10/20 00:28:55;;;;;;;10.75;6.88;;;;;;;;;;4951522;28;20106;-66
2022/10/20 00:31:22;;;;;;;10.93;6.93;;;;;;;;;;4943871;28;20190;-71
2022/10/20 00:33:48;;;;;;;12.45;7.80;;;;;;;;;;4951763;28;20390;-66
2022/10/20 00:36:16;;;;;;;17.33;9.15;;;;;;;;;;4945409;28;20387;-66
2022/10/20 00:38:43;;;;;;;15.98;10.18;;;;;;;;;;4951442;28;20126;-68
2022/10/20 00:41:13;;;;;;;20.15;10.48;;;;;;;;;;4947429;28;20027;-69
2022/10/20 00:43:51;;;;;;;17.42;10.77;;;;;;;;;;4944502;28;20043;-69
2022/10/20 00:46:22;;;;;;;17.55;11.05;;;;;;;;;;4948605;28;20043;-66
2022/10/20 00:48:54;;;;;;;17.20;10.23;;;;;;;;;;4946333;28;20403;-67
2022/10/20 00:51:23;;;;;;;15.50;9.10;;;;;;;;;;4949631;28;20035;-66
2022/10/20 00:53:52;;;;;;;15.35;9.35;;;;;;;;;;4949590;28;20039;-67
2022/10/20 00:56:19;;;;;;;16.90;9.65;;;;;;;;;;4948945;28;20130;-67
2022/10/20 00:58:45;;;;;;;19.88;9.65;;;;;;;;;;4945010;28;20042;-66
2022/10/20 01:01:13;;;;;;;20.00;10.00;;;;;;;;;;4950051;28;20020;-66
2022/10/20 01:03:44;;;;;;;15.77;9.52;;;;;;;;;;4949298;28;20031;-68
2022/10/20 01:06:12;;;;;;;17.67;11.07;;;;;;;;;;4954537;28;20035;-66
2022/10/20 01:08:38;;;;;;;21.67;10.43;;;;;;;;;;4951658;28;20039;-68
2022/10/20 01:11:18;;;;;;;14.85;9.98;;;;;;;;;;4952601;28;20525;-66
2022/10/20 01:13:58;;;;;;;19.40;10.27;;;;;;;;;;4951893;28;20089;-67
2022/10/20 01:16:39;;;;;;;17.45;8.85;;;;;;;;;;4951861;28;20035;-65
2022/10/20 01:19:20;;;;;;;16.98;9.98;;;;;;;;;;4950464;28;20379;-67
2022/10/20 01:22:27;;;;;;;24.98;10.32;;;;;;;;;;4948633;28;20047;-69
2022/10/20 01:25:20;;;;;;;13.40;8.90;;;;;;;;;;4951901;28;20406;-68
2022/10/20 01:28:16;;;;;;;14.70;9.80;;;;;;;;;;4946724;28;20035;-67
2022/10/20 01:30:50;;;;;;;21.15;9.70;;;;;;;;;;4951427;28;20057;-67
2022/10/20 01:33:20;;;;;;;15.88;9.77;;;;;;;;;;4950050;28;20066;-67
2022/10/20 01:35:51;;;;;;;16.73;10.27;;;;;;;;;;4952555;28;20062;-68
2022/10/20 01:38:31;;;;;;;15.60;9.60;;;;;;;;;;4951916;29;20031;-65
2022/10/20 01:41:12;;;;;;;15.65;9.73;;;;;;;;;;4955861;28;20039;-67
2022/10/20 01:43:41;;;;;;;16.17;9.23;;;;;;;;;;4957561;28;20125;-66
2022/10/20 01:46:09;;;;;;;16.45;9.88;;;;;;;;;;4975036;28;20041;-66
2022/10/20 01:48:37;;;;;;;15.60;9.57;;;;;;;;;;4969508;28;20035;-66
2022/10/20 01:51:03;;;;;;;17.58;10.48;;;;;;;;;;4955113;29;20118;-69
2022/10/20 01:53:29;;;;;;;15.98;9.95;;;;;;;;;;4955831;28;20435;-65
2022/10/20 01:55:57;;;;;;;23.38;9.68;;;;;;;;;;4956476;28;20027;-65
2022/10/20 01:58:48;;;;;;;15.52;9.15;;;;;;;;;;4953775;28;20526;-66
2022/10/20 02:01:32;;;;;;;16.15;9.90;;;;;;;;;;4954790;28;20046;-70
2022/10/20 02:04:01;;;;;;;14.57;8.52;;;;;;;;;;4955030;28;20122;-66
2022/10/20 02:06:39;;;;;;;27.10;10.43;;;;;;;;;;4956384;28;20368;-67
2022/10/20 02:09:11;;;;;;;14.63;9.18;;;;;;;;;;4955451;28;20031;-68
2022/10/20 02:11:57;;;;;;;12.95;8.85;;;;;;;;;;4956507;28;20043;-66
2022/10/20 02:14:23;;;;;;;17.30;9.40;;;;;;;;;;4953276;28;20034;-65
2022/10/20 02:16:54;;;;;;;15.93;9.25;;;;;;;;;;4956053;28;20423;-64
2022/10/20 02:19:22;;;;;;;19.75;10.48;;;;;;;;;;4955852;28;20360;-67
2022/10/20 02:21:50;;;;;;;18.35;10.48;;;;;;;;;;4955770;28;20051;-69
2022/10/20 02:24:17;;;;;;;19.73;10.85;;;;;;;;;;4957631;28;20118;-67
2022/10/20 02:26:43;;;;;;;23.40;10.25;;;;;;;;;;4948018;28;20486;-66
2022/10/20 02:29:16;;;;;;;21.75;10.85;;;;;;;;;;4953052;28;20086;-67
2022/10/20 02:31:43;;;;;;;18.10;9.65;;;;;;;;;;4955957;28;20549;-67
2022/10/20 02:34:10;;;;;;;18.73;10.73;;;;;;;;;;4956011;28;20019;-68
2022/10/20 02:36:39;;;;;;;16.00;10.02;;;;;;;;;;4955843;28;20406;-68
2022/10/20 02:39:05;;;;;;;20.38;10.90;;;;;;;;;;4955670;28;20070;-66
2022/10/20 02:41:31;;;;;;;20.17;11.00;;;;;;;;;;4949157;29;20035;-68
2022/10/20 02:43:57;;;;;;;16.15;9.98;;;;;;;;;;4943895;28;20050;-68
2022/10/20 02:46:23;;;;;;;17.55;10.95;;;;;;;;;;4955257;29;20041;-66
2022/10/20 02:48:48;;;;;;;22.60;11.07;;;;;;;;;;4955292;28;20029;-67
2022/10/20 02:51:16;;;;;;;19.45;10.18;;;;;;;;;;4955587;29;20027;-68
2022/10/20 02:53:43;;;;;;;21.65;10.95;;;;;;;;;;4955583;28;20484;-66
2022/10/20 02:56:09;;;;;;;16.02;9.93;;;;;;;;;;4955528;28;20039;-65
2022/10/20 02:58:35;;;;;;;20.13;9.98;;;;;;;;;;4951029;28;20078;-69
2022/10/20 03:01:01;;;;;;;21.55;9.98;;;;;;;;;;4955388;28;20035;-64
2022/10/20 03:03:27;;;;;;;16.10;9.57;;;;;;;;;;4955097;28;20482;-67
2022/10/20 03:05:53;;;;;;;18.02;10.30;;;;;;;;;;4954884;29;20038;-70
2022/10/20 03:08:19;;;;;;;16.50;9.82;;;;;;;;;;4955504;29;20031;-68
2022/10/20 03:10:44;;;;;;;17.92;10.27;;;;;;;;;;4954621;28;20058;-67
2022/10/20 03:13:11;;;;;;;18.45;11.07;;;;;;;;;;4951513;29;20114;-67
2022/10/20 03:15:37;;;;;;;20.85;11.50;;;;;;;;;;4950583;28;20047;-64
2022/10/20 03:18:03;;;;;;;16.95;10.95;;;;;;;;;;4944673;29;20057;-67
2022/10/20 03:20:29;;;;;;;22.92;11.18;;;;;;;;;;4954853;28;20062;-68
2022/10/20 03:22:55;;;;;;;21.08;10.43;;;;;;;;;;4954497;29;20153;-68
2022/10/20 03:25:21;;;;;;;17.42;10.38;;;;;;;;;;4954185;28;20133;-67
2022/10/20 03:27:49;;;;;;;26.70;11.52;;;;;;;;;;4953140;28;20031;-66
2022/10/20 03:30:15;;;;;;;21.73;11.93;;;;;;;;;;4949410;28;20036;-68
2022/10/20 03:32:41;;;;;;;23.23;12.25;;;;;;;;;;4954343;28;20074;-69
2022/10/20 03:35:07;;;;;;;27.95;11.98;;;;;;;;;;4954239;28;20043;-70
2022/10/20 03:37:33;;;;;;;24.08;12.45;;;;;;;;;;4954028;29;20371;-67
2022/10/20 03:39:59;;;;;;;20.02;11.00;;;;;;;;;;4953912;28;20034;-65
2022/10/20 03:42:25;;;;;;;29.48;12.30;;;;;;;;;;4953900;29;20478;-68
2022/10/20 03:44:50;;;;;;;19.23;11.57;;;;;;;;;;4946979;28;20082;-66
2022/10/20 03:47:16;;;;;;;25.95;11.90;;;;;;;;;;4953586;29;20043;-69
2022/10/20 03:49:42;;;;;;;35.00;13.45;;;;;;;;;;4953852;28;20037;-66
2022/10/20 03:52:08;;;;;;;18.50;11.70;;;;;;;;;;4953638;29;20035;-69
2022/10/20 03:54:35;;;;;;;27.52;13.10;;;;;;;;;;4953447;28;20090;-67
2022/10/20 03:57:01;;;;;;;26.50;12.27;;;;;;;;;;4953506;28;20023;-69
2022/10/20 03:59:27;;;;;;;26.00;10.73;;;;;;;;;;4945738;28;20395;-66
2022/10/20 04:01:53;;;;;;;37.90;12.45;;;;;;;;;;4953313;29;20544;-65
2022/10/20 04:04:19;;;;;;;42.70;15.45;;;;;;;;;;4953618;28;20598;-65
2022/10/20 04:06:44;;;;;;;34.75;13.50;;;;;;;;;;4953838;28;20078;-68
2022/10/20 04:09:10;;;;;;;29.30;12.75;;;;;;;;;;4953712;28;20027;-68
2022/10/20 04:11:36;;;;;;;28.63;13.43;;;;;;;;;;4953577;29;20031;-65
2022/10/20 04:14:02;;;;;;;27.70;13.98;;;;;;;;;;4944055;28;20124;-66
2022/10/20 04:16:28;;;;;;;31.50;13.82;;;;;;;;;;4947100;28;20027;-71
2022/10/20 04:18:55;;;;;;;25.45;14.18;;;;;;;;;;4953136;28;20136;-67
2022/10/20 04:21:21;;;;;;;32.75;14.90;;;;;;;;;;4972641;28;20502;-67
2022/10/20 04:23:47;;;;;;;33.30;15.32;;;;;;;;;;4969353;28;20430;-66
2022/10/20 04:26:15;;;;;;;38.50;14.75;;;;;;;;;;4953549;29;20027;-68
2022/10/20 04:28:41;;;;;;;21.70;12.65;;;;;;;;;;4953294;28;20098;-68
2022/10/20 04:31:07;;;;;;;25.40;14.63;;;;;;;;;;4952924;28;20039;-66
2022/10/20 04:33:34;;;;;;;23.67;12.63;;;;;;;;;;4951741;28;20545;-69
2022/10/20 04:36:03;;;;;;;34.42;14.75;;;;;;;;;;4953573;28;20366;-68
2022/10/20 04:38:29;;;;;;;28.48;13.75;;;;;;;;;;4952329;28;20059;-66
2022/10/20 04:40:56;;;;;;;27.45;14.15;;;;;;;;;;4952731;28;20078;-70
2022/10/20 04:43:22;;;;;;;42.28;14.60;;;;;;;;;;4952935;28;20031;-66
2022/10/20 04:45:48;;;;;;;24.23;12.27;;;;;;;;;;4952864;28;20050;-70
2022/10/20 04:48:15;;;;;;;21.88;12.27;;;;;;;;;;4952413;29;20079;-71
2022/10/20 04:50:41;;;;;;;22.33;12.60;;;;;;;;;;4948538;28;20040;-66
2022/10/20 04:53:08;;;;;;;21.42;12.98;;;;;;;;;;4941643;28;20110;-70
2022/10/20 04:55:34;;;;;;;24.33;13.52;;;;;;;;;;4941395;28;20090;-70
2022/10/20 04:58:00;;;;;;;27.58;13.18;;;;;;;;;;4937712;29;20044;-66
2022/10/20 05:00:26;;;;;;;25.73;12.80;;;;;;;;;;4953326;28;20043;-67
2022/10/20 05:02:53;;;;;;;27.98;13.07;;;;;;;;;;4953204;29;20039;-67
2022/10/20 05:05:19;;;;;;;20.85;12.63;;;;;;;;;;4949305;28;20035;-67
2022/10/20 05:07:45;;;;;;;23.38;12.60;;;;;;;;;;4952533;28;20085;-66
2022/10/20 05:10:11;;;;;;;29.60;11.98;;;;;;;;;;4952348;28;20070;-66
2022/10/20 05:12:37;;;;;;;24.02;12.93;;;;;;;;;;4951936;29;20646;-68
2022/10/20 05:15:03;;;;;;;28.38;14.75;;;;;;;;;;4952616;28;20031;-67
2022/10/20 05:17:29;;;;;;;24.45;12.70;;;;;;;;;;4952432;29;20036;-68
2022/10/20 05:19:55;;;;;;;24.30;12.80;;;;;;;;;;4946952;28;20423;-67
2022/10/20 05:22:21;;;;;;;29.30;12.90;;;;;;;;;;4952191;29;20160;-66
2022/10/20 05:24:47;;;;;;;23.10;13.18;;;;;;;;;;4952359;28;20122;-65
2022/10/20 05:27:13;;;;;;;28.80;14.32;;;;;;;;;;4952339;29;20110;-68
2022/10/20 05:29:39;;;;;;;30.50;13.18;;;;;;;;;;4952092;28;20166;-66
2022/10/20 05:32:04;;;;;;;28.23;13.60;;;;;;;;;;4952499;29;20548;-67
2022/10/20 05:34:30;;;;;;;37.63;12.50;;;;;;;;;;4947887;28;20434;-67
2022/10/20 05:36:56;;;;;;;20.80;12.52;;;;;;;;;;4952377;29;20050;-68
2022/10/20 05:39:22;;;;;;;30.83;12.65;;;;;;;;;;4951733;28;20103;-65
2022/10/20 05:41:48;;;;;;;24.63;12.48;;;;;;;;;;4951977;29;20115;-69
2022/10/20 05:44:14;;;;;;;25.10;11.85;;;;;;;;;;4950719;28;20031;-71
2022/10/20 05:46:41;;;;;;;25.10;11.57;;;;;;;;;;4952046;28;20459;-69
2022/10/20 05:49:12;;;;;;;17.73;10.60;;;;;;;;;;4951206;28;20079;-69
2022/10/20 05:51:38;;;;;;;15.82;10.70;;;;;;;;;;4954085;28;20099;-71
2022/10/20 05:54:04;;;;;;;18.65;10.75;;;;;;;;;;4955949;29;20039;-68
2022/10/20 05:56:30;;;;;;;22.48;11.60;;;;;;;;;;4958446;28;20042;-66
2022/10/20 05:58:57;;;;;;;18.95;9.32;;;;;;;;;;4974065;28;20062;-65
2022/10/20 06:01:37;;;;;;;28.85;11.77;;;;;;;;;;4962621;28;20090;-68
2022/10/20 06:04:04;;;;;;;24.83;11.18;;;;;;;;;;4933823;29;20051;-65
2022/10/20 06:06:30;;;;;;;27.70;10.65;;;;;;;;;;4943076;28;20078;-67
2022/10/20 06:08:58;;;;;;;17.90;10.07;;;;;;;;;;4955142;28;20046;-68
2022/10/20 06:11:24;;;;;;;19.90;9.73;;;;;;;;;;4954151;28;20019;-69
2022/10/20 06:13:51;;;;;;;15.35;9.98;;;;;;;;;;4954680;28;20039;-65
2022/10/20 06:16:20;;;;;;;23.35;10.93;;;;;;;;;;4955470;28;20028;-64
2022/10/20 06:18:46;;;;;;;21.15;10.10;;;;;;;;;;4948328;29;20435;-70
2022/10/20 06:21:17;;;;;;;18.48;10.43;;;;;;;;;;4940403;28;20119;-68
2022/10/20 06:23:44;;;;;;;21.50;11.02;;;;;;;;;;4944556;29;20502;-68
2022/10/20 06:26:12;;;;;;;26.70;12.00;;;;;;;;;;4946194;28;20039;-67
2022/10/20 06:28:39;;;;;;;19.20;11.63;;;;;;;;;;4952018;29;20039;-66
2022/10/20 06:31:20;;;;;;;24.10;12.52;;;;;;;;;;4953280;29;20067;-67
2022/10/20 06:33:47;;;;;;;22.35;11.10;;;;;;;;;;4955388;29;20035;-65
2022/10/20 06:36:13;;;;;;;25.92;11.88;;;;;;;;;;4954861;28;20055;-68
2022/10/20 06:38:40;;;;;;;22.13;11.85;;;;;;;;;;4953701;29;20232;-67
2022/10/20 06:41:11;;;;;;;20.38;10.55;;;;;;;;;;4955424;28;20023;-67
2022/10/20 06:43:37;;;;;;;21.30;10.45;;;;;;;;;;4955025;28;20073;-66
2022/10/20 06:46:06;;;;;;;24.48;10.57;;;;;;;;;;4954595;29;20074;-67
2022/10/20 06:48:33;;;;;;;19.85;11.35;;;;;;;;;;4954619;28;20081;-68
2022/10/20 06:51:04;;;;;;;18.70;11.15;;;;;;;;;;4954203;28;20093;-68
2022/10/20 06:53:33;;;;;;;26.27;12.20;;;;;;;;;;4954500;28;20031;-70
2022/10/20 06:56:01;;;;;;;21.60;12.15;;;;;;;;;;4955044;28;20059;-67
2022/10/20 06:58:28;;;;;;;20.50;10.45;;;;;;;;;;4955019;29;20034;-66
2022/10/20 07:01:02;;;;;;;31.33;11.75;;;;;;;;;;4954805;28;20448;-67
2022/10/20 07:03:29;;;;;;;28.20;11.18;;;;;;;;;;4953397;28;20067;-68
2022/10/20 07:05:55;;;;;;;27.77;11.05;;;;;;;;;;4941501;29;20046;-66
2022/10/20 07:08:21;;;;;;;21.92;11.13;;;;;;;;;;4943638;28;20031;-66
2022/10/20 07:11:00;;;;;;;19.42;11.27;;;;;;;;;;4943323;28;20435;-68
2022/10/20 07:13:28;;;;;;;22.42;11.57;;;;;;;;;;4950159;29;20125;-68
2022/10/20 07:15:55;;;;;;;17.80;9.77;;;;;;;;;;4944823;28;20046;-69
2022/10/20 07:18:22;;;;;;;24.23;10.68;;;;;;;;;;4937689;28;20031;-67
2022/10/20 07:20:48;;;;;;;25.45;9.35;;;;;;;;;;4933599;29;20039;-69
2022/10/20 07:23:14;;;;;;;18.83;10.35;;;;;;;;;;4934932;29;20056;-72
2022/10/20 07:25:40;;;;;;;15.43;9.85;;;;;;;;;;4934519;29;20151;-69
2022/10/20 07:28:06;;;;;;;16.80;9.32;;;;;;;;;;4945340;29;20114;-70
2022/10/20 07:30:40;;;;;;;17.42;9.88;;;;;;;;;;4947834;28;20597;-72
2022/10/20 07:33:07;;;;;;;23.77;9.13;;;;;;;;;;4952334;29;20039;-67
2022/10/20 07:35:33;;;;;;;13.88;8.73;;;;;;;;;;4953482;28;20030;-68
2022/10/20 07:37:59;;;;;;;18.25;8.52;;;;;;;;;;4942987;28;20035;-69
2022/10/20 07:40:25;;;;;;;17.67;8.93;;;;;;;;;;4942110;29;20039;-69
2022/10/20 07:42:51;;;;;;;18.95;10.10;;;;;;;;;;4953240;29;20042;-70
2022/10/20 07:45:17;;;;;;;25.50;11.45;;;;;;;;;;4951761;29;20042;-68
2022/10/20 07:47:43;;;;;;;17.15;9.35;;;;;;;;;;4959699;28;20046;-70
2022/10/20 07:50:09;;;;;;;19.23;9.05;;;;;;;;;;4968742;28;20119;-67
2022/10/20 07:52:35;;;;;;;17.17;9.30;;;;;;;;;;4967606;28;20070;-67
2022/10/20 07:55:01;;;;;;;15.13;8.13;;;;;;;;;;4951916;28;20059;-69
2022/10/20 07:57:26;;;;;;;15.48;8.82;;;;;;;;;;4941667;28;20039;-70
2022/10/20 07:59:52;;;;;;;25.00;9.73;;;;;;;;;;4934690;29;20044;-66
2022/10/20 08:02:19;;;;;;;13.60;8.82;;;;;;;;;;4934392;28;20036;-68
2022/10/20 08:04:45;;;;;;;15.93;9.00;;;;;;;;;;4943981;29;20066;-69
2022/10/20 08:07:11;;;;;;;16.52;9.38;;;;;;;;;;4952336;29;20076;-69
2022/10/20 08:09:37;;;;;;;18.80;8.95;;;;;;;;;;4948041;29;20039;-72
2022/10/20 08:12:04;;;;;;;14.57;8.05;;;;;;;;;;4952440;28;20038;-67
2022/10/20 08:14:34;;;;;;;13.77;7.90;;;;;;;;;;4946461;28;20042;-68
2022/10/20 08:17:02;;;;;;;16.92;7.93;;;;;;;;;;4948414;29;20036;-69
2022/10/20 08:19:28;;;;;;;13.18;7.30;;;;;;;;;;4950692;28;20035;-69
2022/10/20 08:21:54;;;;;;;11.55;7.15;;;;;;;;;;4946945;28;20398;-68
2022/10/20 08:24:20;;;;;;;15.68;7.72;;;;;;;;;;4938398;28;20031;-72
2022/10/20 08:26:46;;;;;;;15.38;7.30;;;;;;;;;;4933091;29;20043;-68
2022/10/20 08:29:12;;;;;;;13.25;7.80;;;;;;;;;;4945126;29;20102;-68
2022/10/20 08:31:38;;;;;;;12.80;7.45;;;;;;;;;;4950625;28;20082;-68
2022/10/20 08:34:04;;;;;;;16.70;8.10;;;;;;;;;;4949284;29;20082;-71
2022/10/20 08:36:30;;;;;;;16.88;9.07;;;;;;;;;;4950418;28;20036;-68
2022/10/20 08:38:59;;;;;;;16.10;9.13;;;;;;;;;;4951910;29;20031;-71
2022/10/20 08:41:33;;;;;;;14.98;8.32;;;;;;;;;;4953182;29;20050;-69
2022/10/20 08:44:02;;;;;;;13.93;7.70;;;;;;;;;;4952723;29;20043;-68
2022/10/20 08:46:39;;;;;;;16.48;8.55;;;;;;;;;;4952039;28;20119;-71
2022/10/20 08:49:18;;;;;;;21.48;8.35;;;;;;;;;;4953662;29;20114;-70
2022/10/20 08:51:45;;;;;;;15.80;8.50;;;;;;;;;;4953659;29;20036;-68
2022/10/20 08:54:14;;;;;;;19.00;8.25;;;;;;;;;;4953322;28;20038;-69
2022/10/20 08:56:41;;;;;;;15.00;8.32;;;;;;;;;;4952732;28;20090;-71
2022/10/20 08:59:26;;;;;;;18.38;8.30;;;;;;;;;;4953287;28;20475;-69
2022/10/20 09:01:53;;;;;;;12.95;7.68;;;;;;;;;;4953545;28;20498;-70
2022/10/20 09:04:57;;;;;;;17.00;7.90;;;;;;;;;;4953480;28;20035;-70
2022/10/20 09:07:37;;;;;;;11.18;6.85;;;;;;;;;;4953674;28;20036;-68
2022/10/20 09:10:14;;;;;;;18.23;6.75;;;;;;;;;;4952752;28;20031;-68
2022/10/20 09:12:43;;;;;;;12.50;7.38;;;;;;;;;;4953340;29;20039;-73
2022/10/20 09:15:14;;;;;;;11.93;6.35;;;;;;;;;;4953918;29;20114;-71
2022/10/20 09:17:52;;;;;;;13.85;7.15;;;;;;;;;;4953710;29;20119;-68
2022/10/20 09:20:23;;;;;;;14.65;7.28;;;;;;;;;;4953093;28;20061;-68
2022/10/20 09:22:49;;;;;;;12.07;6.85;;;;;;;;;;4952918;29;20046;-69
2022/10/20 09:25:17;;;;;;;15.30;7.13;;;;;;;;;;4956756;28;20035;-69
2022/10/20 09:27:44;;;;;;;18.42;7.45;;;;;;;;;;4957314;28;20051;-69
2022/10/20 09:30:16;;;;;;;13.60;8.27;;;;;;;;;;4956896;28;20086;-67
2022/10/20 09:32:42;;;;;;;15.75;7.57;;;;;;;;;;4957309;28;20382;-68
2022/10/20 09:35:17;;;;;;;12.70;6.72;;;;;;;;;;4956874;28;20031;-68
2022/10/20 09:37:50;;;;;;;12.85;7.18;;;;;;;;;;4956953;28;20114;-73
2022/10/20 09:40:17;;;;;;;15.30;6.90;;;;;;;;;;4957037;29;20035;-68
2022/10/20 09:42:57;;;;;;;13.88;6.97;;;;;;;;;;4956647;28;20436;-71
2022/10/20 09:45:34;;;;;;;13.35;6.90;;;;;;;;;;4957033;28;20470;-71
2022/10/20 09:48:23;;;;;;;11.57;6.65;;;;;;;;;;4956289;28;20089;-69
2022/10/20 09:50:54;;;;;;;13.43;7.47;;;;;;;;;;4956514;28;20098;-68
2022/10/20 09:53:27;;;;;;;10.63;6.43;;;;;;;;;;4956497;28;20427;-68
2022/10/20 09:55:54;;;;;;;8.57;5.15;;;;;;;;;;4956824;28;20495;-71
2022/10/20 09:58:26;;;;;;;11.25;6.90;;;;;;;;;;4956165;28;20055;-69
2022/10/20 10:01:05;;;;;;;18.75;6.95;;;;;;;;;;4956101;28;20039;-68
2022/10/20 10:03:40;;;;;;;17.05;6.53;;;;;;;;;;4960755;28;20019;-68
2022/10/20 10:06:40;;;;;;;14.45;6.35;;;;;;;;;;4974657;28;20039;-70
2022/10/20 10:09:25;;;;;;;16.05;5.63;;;;;;;;;;4942255;28;20039;-68
2022/10/20 10:12:13;;;;;;;9.60;5.70;;;;;;;;;;4972042;28;20397;-69
2022/10/20 10:14:51;;;;;;;12.55;6.20;;;;;;;;;;4955046;29;20046;-67
2022/10/20 10:17:37;;;;;;;11.93;5.90;;;;;;;;;;4955045;29;20059;-70
2022/10/20 10:20:37;;;;;;;9.85;6.05;;;;;;;;;;4955087;28;20054;-68
2022/10/20 10:23:23;;;;;;;11.38;6.32;;;;;;;;;;4950123;29;20039;-70
2022/10/20 10:25:51;;;;;;;11.75;7.85;;;;;;;;;;4947859;28;20127;-73
2022/10/20 10:28:25;;;;;;;9.90;7.28;;;;;;;;;;4948985;28;20089;-69
2022/10/20 10:31:06;;;;;;;13.60;7.07;;;;;;;;;;4935923;28;20031;-69
2022/10/20 10:33:32;;;;;;;9.85;7.32;;;;;;;;;;4934955;29;20538;-68
2022/10/20 10:36:02;;;;;;;13.48;8.40;;;;;;;;;;4938080;28;20134;-70
2022/10/20 10:38:28;;;;;;;8.20;6.82;;;;;;;;;;4951632;28;20063;-69
2022/10/20 10:41:03;;;;;;;13.63;7.57;;;;;;;;;;4961421;28;20034;-70
2022/10/20 10:44:04;;;;;;;11.85;6.80;;;;;;;;;;4950313;28;20032;-68
2022/10/20 10:46:35;;;;;;;12.65;7.82;;;;;;;;;;4952738;28;20453;-69
2022/10/20 10:49:23;;;;;;;12.15;6.57;;;;;;;;;;4958640;28;20498;-68
2022/10/20 10:52:13;;;;;;;10.98;6.40;;;;;;;;;;4952964;28;20039;-67
2022/10/20 10:55:07;;;;;;;10.15;6.35;;;;;;;;;;4954543;28;20532;-68
2022/10/20 10:58:00;;;;;;;11.90;6.22;;;;;;;;;;4947942;28;20063;-68
2022/10/20 11:00:51;;;;;;;9.43;6.50;;;;;;;;;;4952412;28;20046;-68
2022/10/20 11:03:28;;;;;;;10.23;7.30;;;;;;;;;;4945162;28;20053;-67
2022/10/20 11:06:26;;;;;;;14.27;7.20;;;;;;;;;;4950133;28;20098;-68
2022/10/20 11:09:19;;;;;;;11.30;6.50;;;;;;;;;;4945698;28;20448;-70
2022/10/20 11:12:05;;;;;;;10.67;6.90;;;;;;;;;;4944441;28;20039;-68
2022/10/20 11:14:46;;;;;;;9.45;6.90;;;;;;;;;;4948172;28;20443;-69
2022/10/20 11:17:30;;;;;;;12.15;6.78;;;;;;;;;;4952138;28;20383;-71
2022/10/20 11:20:18;;;;;;;10.43;6.65;;;;;;;;;;4946704;28;20031;-69
2022/10/20 11:23:21;;;;;;;10.50;6.68;;;;;;;;;;4948000;28;20050;-70
2022/10/20 11:25:57;;;;;;;10.85;7.80;;;;;;;;;;4941982;28;20070;-69
2022/10/20 11:28:43;;;;;;;12.07;7.15;;;;;;;;;;4951242;28;20487;-75
2022/10/20 11:31:38;;;;;;;8.18;6.47;;;;;;;;;;4948013;28;20114;-69
2022/10/20 11:34:26;;;;;;;11.80;7.13;;;;;;;;;;4950248;28;20046;-71
2022/10/20 11:37:22;;;;;;;12.68;7.20;;;;;;;;;;4948491;28;20078;-69
2022/10/20 11:39:55;;;;;;;11.90;6.32;;;;;;;;;;4947524;28;20027;-69
2022/10/20 11:42:49;;;;;;;9.68;6.28;;;;;;;;;;4948095;28;20035;-71
2022/10/20 11:45:38;;;;;;;11.32;6.32;;;;;;;;;;4950828;28;20494;-72
2022/10/20 11:48:28;;;;;;;14.27;6.78;;;;;;;;;;4937752;28;20036;-69
2022/10/20 11:51:05;;;;;;;7.68;5.57;;;;;;;;;;4947031;28;20385;-69
2022/10/20 11:54:13;;;;;;;8.80;5.85;;;;;;;;;;4940684;28;20050;-70
2022/10/20 11:57:04;;;;;;;9.98;6.30;;;;;;;;;;4946087;28;20043;-69
2022/10/20 11:59:52;;;;;;;8.52;5.57;;;;;;;;;;4953269;28;20363;-71
2022/10/20 12:02:39;;;;;;;7.72;5.53;;;;;;;;;;4944910;28;20039;-70
2022/10/20 12:05:35;;;;;;;7.97;5.28;;;;;;;;;;4950000;28;20047;-69
2022/10/20 12:08:13;;;;;;;8.68;5.50;;;;;;;;;;4947537;28;20114;-69
2022/10/20 12:10:50;;;;;;;9.25;5.55;;;;;;;;;;4943974;28;20058;-69
2022/10/20 12:13:57;;;;;;;12.45;5.80;;;;;;;;;;4952984;28;20054;-69
2022/10/20 12:16:51;;;;;;;8.50;5.72;;;;;;;;;;4951700;28;20093;-74
2022/10/20 12:19:27;;;;;;;;;;;;;;;;;;4952791;29;20043;-73
2022/10/20 12:21:59;;;;;;;9.02;5.45;;;;;;;;;;4952808;28;20342;-71
2022/10/20 12:24:38;;;;;;;10.70;5.80;;;;;;;;;;4954238;28;20157;-69
2022/10/20 12:27:06;;;;;;;9.85;6.15;;;;;;;;;;4954370;28;20521;-69
2022/10/20 12:29:32;;;;;;;8.68;5.88;;;;;;;;;;4953914;28;20019;-74
2022/10/20 12:32:28;;;;;;;9.75;5.70;;;;;;;;;;4953442;28;20509;-69
2022/10/20 12:35:21;;;;;;;7.78;5.38;;;;;;;;;;4934683;29;20111;-74
2022/10/20 12:38:03;;;;;;;8.52;5.78;;;;;;;;;;4934773;29;20036;-71
2022/10/20 12:40:32;;;;;;;8.15;5.88;;;;;;;;;;4933391;29;20039;-73
2022/10/20 12:42:59;;;;;;;10.07;5.25;;;;;;;;;;4934689;29;20035;-69
2022/10/20 12:45:35;;;;;;;7.82;5.53;;;;;;;;;;4934375;29;20123;-68
2022/10/20 12:48:02;;;;;;;10.02;5.50;;;;;;;;;;4933527;29;20113;-67
2022/10/20 12:50:36;;;;;;;8.25;5.07;;;;;;;;;;4934935;29;20086;-68
2022/10/20 12:53:17;;;;;;;6.93;4.97;;;;;;;;;;4935369;29;20059;-70
2022/10/20 12:55:52;;;;;;;8.13;4.63;;;;;;;;;;4935202;29;20040;-74
2022/10/20 12:58:18;;;;;;;9.20;6.15;;;;;;;;;;4935141;29;20075;-69
2022/10/20 13:00:47;;;;;;;11.10;5.93;;;;;;;;;;4938942;29;20067;-67
2022/10/20 13:03:48;;;;;;;6.20;4.97;;;;;;;;;;4939025;29;20503;-69
2022/10/20 13:06:23;;;;;;;9.20;5.38;;;;;;;;;;4938797;29;20039;-69
2022/10/20 13:09:09;;;;;;;11.30;5.80;;;;;;;;;;4938953;29;20039;-69
2022/10/20 13:11:34;;;;;;;10.57;5.70;;;;;;;;;;4939037;29;20391;-70
2022/10/20 13:14:25;;;;;;;8.07;5.82;;;;;;;;;;4938988;29;20038;-70
2022/10/20 13:17:01;;;;;;;13.25;5.90;;;;;;;;;;4936157;29;20389;-67
2022/10/20 13:19:37;;;;;;;7.55;5.10;;;;;;;;;;4938610;29;20044;-69
2022/10/20 13:22:36;;;;;;;9.20;5.65;;;;;;;;;;4938394;29;20048;-68
2022/10/20 13:25:05;;;;;;;12.07;5.80;;;;;;;;;;4927169;29;20055;-72
2022/10/20 13:27:31;;;;;;;8.60;5.50;;;;;;;;;;4938509;29;20497;-68
2022/10/20 13:29:57;;;;;;;10.10;5.65;;;;;;;;;;4938646;29;20051;-68
2022/10/20 13:33:02;;;;;;;11.35;5.38;;;;;;;;;;4938761;29;20122;-70
2022/10/20 13:35:38;;;;;;;9.10;5.45;;;;;;;;;;4938104;29;20054;-69
2022/10/20 13:38:19;;;;;;;9.65;5.45;;;;;;;;;;4938019;29;20391;-69
2022/10/20 13:41:01;;;;;;;6.97;4.97;;;;;;;;;;4938122;29;20084;-69
2022/10/20 13:43:53;;;;;;;8.68;5.50;;;;;;;;;;4938354;29;20043;-69
2022/10/20 13:46:45;;;;;;;8.52;4.90;;;;;;;;;;4937972;29;20047;-67
2022/10/20 13:49:29;;;;;;;7.35;5.75;;;;;;;;;;4938070;29;20042;-71
2022/10/20 13:51:58;;;;;;;;;;;;;;;;;;4938535;29;20075;-69
2022/10/20 13:54:31;;;;;;;9.32;5.32;;;;;;;;;;4938266;29;19957;-69
2022/10/20 13:56:57;;;;;;;9.18;5.47;;;;;;;;;;4946115;29;20036;-69
2022/10/20 13:59:24;;;;;;;9.70;5.32;;;;;;;;;;4945991;28;20027;-66
2022/10/20 14:01:56;;;;;;;9.50;5.32;;;;;;;;;;4942050;29;20031;-72
2022/10/20 14:04:30;;;;;;;12.10;6.03;;;;;;;;;;4955525;28;20038;-70
2022/10/20 14:07:12;;;;;;;8.52;5.22;;;;;;;;;;4955734;28;20482;-72
2022/10/20 14:09:38;;;;;;;8.73;5.75;;;;;;;;;;4954887;28;20038;-70
2022/10/20 14:12:10;;;;;;;9.75;5.50;;;;;;;;;;4954726;28;20035;-68
2022/10/20 14:14:41;;;;;;;6.93;5.05;;;;;;;;;;4955135;28;20031;-74
2022/10/20 14:17:07;;;;;;;7.53;5.07;;;;;;;;;;4955876;28;20094;-69
2022/10/20 14:19:34;;;;;;;6.63;5.00;;;;;;;;;;4954244;29;20039;-68
2022/10/20 14:22:18;;;;;;;8.43;4.55;;;;;;;;;;4955674;28;20050;-69
2022/10/20 14:24:52;;;;;;;7.97;5.57;;;;;;;;;;4955031;28;20127;-70
2022/10/20 14:27:24;;;;;;;8.60;4.95;;;;;;;;;;4956289;28;20040;-71
2022/10/20 14:29:51;;;;;;;7.13;5.10;;;;;;;;;;4956597;28;20035;-68
2022/10/20 14:32:25;;;;;;;7.53;5.47;;;;;;;;;;4956156;28;20066;-68
2022/10/20 14:34:59;;;;;;;11.15;5.40;;;;;;;;;;4954486;28;20031;-68
2022/10/20 14:37:38;;;;;;;9.27;5.55;;;;;;;;;;4948864;28;20890;-67
2022/10/20 14:40:22;;;;;;;8.40;5.18;;;;;;;;;;4954684;28;20035;-68
2022/10/20 14:42:49;;;;;;;7.75;5.00;;;;;;;;;;4961599;28;20437;-68
2022/10/20 14:45:23;;;;;;;8.63;5.70;;;;;;;;;;4954276;28;20139;-68
2022/10/20 14:47:51;;;;;;;10.23;5.03;;;;;;;;;;4955004;28;20043;-67
2022/10/20 14:50:35;;;;;;;9.32;6.47;;;;;;;;;;4954982;28;20119;-72
2022/10/20 14:53:26;;;;;;;8.27;5.22;;;;;;;;;;4952186;28;20058;-73
2022/10/20 14:55:54;;;;;;;10.10;5.05;;;;;;;;;;4954211;28;20082;-69
2022/10/20 14:58:53;;;;;;;8.60;5.10;;;;;;;;;;4953509;28;20086;-69
2022/10/20 15:01:30;;;;;;;8.30;5.35;;;;;;;;;;4954379;28;20043;-69